Time;durP1;ratioP1;P1;durP2;ratioP2;P2;SDS_P1;SDS_P2;PMS_P1;PMS_P2;Temp;Humidity;BMP_temperature;BMP_pressure;BME280_temperature;BME280_humidity;BME280_pressure;Samples;Min_cycle;Max_cycle;Signal;HPM_P1;HPM_P2
2021/03/22 00:02:07;;;;;;;20.45;17.87;;;;;;;2.56;58.17;98447.22;1831840;75;27988;-38
2021/03/22 00:04:35;;;;;;;23.83;17.15;;;;;;;2.56;58.17;98447.22;1827580;77;21625;-38
2021/03/22 00:07:05;;;;;;;20.30;14.95;;;;;;;2.55;58.01;98441.08;1828131;77;20991;-38
2021/03/22 00:09:34;;;;;;;22.58;15.70;;;;;;;2.35;58.45;98435.20;1839196;75;21158;-38
2021/03/22 00:12:04;;;;;;;24.50;16.42;;;;;;;2.19;58.89;98433.66;1847100;77;20999;-38
2021/03/22 00:14:33;;;;;;;23.30;15.72;;;;;;;2.09;59.21;98432.72;1846936;75;21015;-38
2021/03/22 00:17:02;;;;;;;23.70;15.55;;;;;;;1.95;59.66;98434.86;1859885;77;21158;-38
2021/03/22 00:19:31;;;;;;;21.12;15.70;;;;;;;1.88;60.00;98426.59;1832929;75;21553;-38
2021/03/22 00:21:59;;;;;;;21.73;15.93;;;;;;;1.83;60.17;98430.79;1786485;79;21056;-38
2021/03/22 00:24:26;;;;;;;23.87;16.25;;;;;;;1.80;60.36;98420.73;1788033;78;21571;-38
2021/03/22 00:26:55;;;;;;;22.25;16.57;;;;;;;1.78;60.42;98414.95;1772422;78;21141;-38
2021/03/22 00:29:24;;;;;;;21.25;15.28;;;;;;;1.76;60.46;98417.14;1787114;78;21456;-38
2021/03/22 00:31:52;;;;;;;25.08;17.23;;;;;;;1.70;60.67;98410.42;1773124;78;21613;-38
2021/03/22 00:34:19;;;;;;;24.45;16.27;;;;;;;1.67;60.79;98414.53;1794035;77;21016;-38
2021/03/22 00:36:53;;;;;;;22.07;16.10;;;;;;;1.64;60.99;98418.41;1789341;80;21158;-38
2021/03/22 00:39:20;;;;;;;24.23;16.27;;;;;;;1.57;61.16;98419.46;1799838;77;21575;-38
2021/03/22 00:41:48;;;;;;;23.55;15.85;;;;;;;1.53;61.26;98415.87;1811658;77;21195;-38
2021/03/22 00:44:16;;;;;;;22.65;15.50;;;;;;;1.50;61.40;98415.95;1795244;77;21150;-38
2021/03/22 00:46:44;;;;;;;25.43;16.77;;;;;;;1.50;61.44;98411.19;1779727;78;21106;-38
2021/03/22 00:49:13;;;;;;;23.95;15.20;;;;;;;1.49;61.56;98414.95;1771992;78;21523;-38
2021/03/22 00:51:41;;;;;;;23.75;16.52;;;;;;;1.47;61.62;98413.15;1778600;78;21122;-38
2021/03/22 00:54:09;;;;;;;23.02;14.90;;;;;;;1.47;61.67;98412.60;1766824;79;22446;-38
2021/03/22 00:56:37;;;;;;;26.80;16.85;;;;;;;1.49;61.71;98416.30;1787382;79;21114;-38
2021/03/22 00:59:05;;;;;;;26.00;16.50;;;;;;;1.48;61.77;98416.05;1779018;78;21145;-38
2021/03/22 01:01:33;;;;;;;25.68;16.50;;;;;;;1.49;61.72;98410.95;1805619;77;21190;-38
2021/03/22 01:04:02;;;;;;;24.25;15.65;;;;;;;1.48;61.77;98406.70;1792334;78;21194;-38
2021/03/22 01:06:30;;;;;;;26.80;17.30;;;;;;;1.44;61.87;98403.91;1795627;77;21196;-38
2021/03/22 01:08:58;;;;;;;27.55;17.40;;;;;;;1.41;61.96;98401.08;1788277;78;21025;-38
2021/03/22 01:11:26;;;;;;;24.10;16.60;;;;;;;1.39;62.09;98405.97;1814466;77;21149;-38
2021/03/22 01:13:57;;;;;;;26.07;17.07;;;;;;;1.40;62.25;98404.88;1808389;78;21158;-38
2021/03/22 01:16:32;;;;;;;26.62;16.60;;;;;;;1.41;62.33;98405.08;1786508;78;21138;-38
2021/03/22 01:19:05;;;;;;;21.95;16.45;;;;;;;1.42;62.48;98410.66;1786026;78;22290;-38
2021/03/22 01:21:40;;;;;;;22.00;15.50;;;;;;;1.44;62.52;98409.25;1788593;80;21428;-38
2021/03/22 01:24:10;;;;;;;24.15;15.68;;;;;;;1.46;62.52;98412.36;1808860;77;21175;-38
2021/03/22 01:26:39;;;;;;;;;;;;;;;1.47;62.46;98406.47;1809539;77;21533;-38
2021/03/22 01:29:12;;;;;;;22.02;14.40;;;;;;;1.48;62.46;98406.70;1805554;77;20341;-38
2021/03/22 01:31:39;;;;;;;21.35;15.08;;;;;;;1.42;62.64;98403.98;1820736;77;21346;-38
2021/03/22 01:34:07;;;;;;;21.27;15.32;;;;;;;1.43;62.59;98409.56;1797158;77;21168;-38
2021/03/22 01:36:36;;;;;;;19.73;15.05;;;;;;;1.46;62.58;98411.58;1794120;78;21031;-38
2021/03/22 01:39:11;;;;;;;23.20;16.55;;;;;;;1.46;62.58;98404.91;1792848;78;21141;-38
2021/03/22 01:41:59;;;;;;;23.50;14.78;;;;;;;1.46;62.67;98403.56;1791062;78;21185;-38
2021/03/22 01:44:34;;;;;;;21.37;15.43;;;;;;;1.48;62.67;98406.70;1808180;77;21228;-38
2021/03/22 01:47:10;;;;;;;22.13;15.03;;;;;;;1.49;62.71;98399.72;1789982;78;21157;-38
2021/03/22 01:49:49;;;;;;;24.57;16.65;;;;;;;1.53;62.56;98398.52;1794484;78;21595;-38
2021/03/22 01:52:17;;;;;;;24.45;15.83;;;;;;;1.54;62.59;98392.86;1791315;78;21454;-38
2021/03/22 01:54:46;;;;;;;22.62;15.93;;;;;;;1.50;62.36;98381.81;1793561;78;21159;-38
2021/03/22 01:57:38;;;;;;;22.00;15.50;;;;;;;1.63;62.32;98399.48;1782412;78;21372;-38
2021/03/22 02:00:15;;;;;;;22.93;15.85;;;;;;;1.69;62.13;98402.95;1767065;79;21558;-38
2021/03/22 02:02:44;;;;;;;21.55;15.20;;;;;;;1.74;62.07;98400.67;1772157;81;21009;-38
2021/03/22 02:05:18;;;;;;;21.55;15.35;;;;;;;1.78;61.97;98394.91;1774600;79;21173;-38
2021/03/22 02:07:48;;;;;;;23.55;15.15;;;;;;;1.80;61.85;98396.68;1773200;79;21195;-38
2021/03/22 02:10:16;;;;;;;23.38;14.65;;;;;;;1.81;61.62;98394.24;1744481;81;21368;-38
2021/03/22 02:12:43;;;;;;;21.80;15.25;;;;;;;1.79;61.55;98395.14;1772347;79;21148;-38
2021/03/22 02:15:13;;;;;;;23.50;14.95;;;;;;;1.78;61.54;98394.91;1773583;79;21161;-38
2021/03/22 02:17:52;;;;;;;23.20;15.60;;;;;;;1.79;61.39;98387.67;1779650;79;21605;-38
2021/03/22 02:21:10;;;;;;;17.32;12.20;;;;;;;1.80;61.27;98385.99;1771838;79;21193;-38
2021/03/22 02:24:08;;;;;;;22.15;15.48;;;;;;;1.80;61.25;98385.99;1761614;79;21369;-38
2021/03/22 02:27:17;;;;;;;22.77;13.75;;;;;;;1.77;61.18;98375.97;1754936;79;21190;-38
2021/03/22 02:30:30;;;;;;;23.38;15.15;;;;;;;1.73;61.22;98379.06;1756558;79;21350;-39
2021/03/22 02:33:13;;;;;;;22.37;15.23;;;;;;;1.65;61.55;98370.53;1768184;80;21145;-38
2021/03/22 02:35:59;;;;;;;22.27;15.10;;;;;;;1.64;61.59;98377.80;1785527;79;21737;-38
2021/03/22 02:38:48;;;;;;;21.10;14.15;;;;;;;1.68;61.55;98377.92;1773354;79;21203;-39
2021/03/22 02:41:28;;;;;;;22.85;15.83;;;;;;;1.74;61.64;98371.28;1819695;76;22760;-38
2021/03/22 02:44:12;;;;;;;22.75;15.25;;;;;;;1.72;61.64;98373.48;1787782;79;21038;-38
2021/03/22 02:46:40;;;;;;;21.65;15.43;;;;;;;1.74;61.61;98367.27;1816741;79;21267;-38
2021/03/22 02:49:14;;;;;;;21.82;15.15;;;;;;;1.77;61.40;98361.27;1811501;79;21885;-38
2021/03/22 02:52:24;;;;;;;22.42;15.53;;;;;;;1.79;61.36;98362.28;1814609;79;21130;-38
2021/03/22 02:54:56;;;;;;;;;;;;;;;1.77;61.33;98358.59;1787777;79;20996;-38
2021/03/22 02:57:44;;;;;;;23.90;15.80;;;;;;;1.81;61.29;98355.50;1785162;79;20161;-38
2021/03/22 03:00:18;;;;;;;20.82;14.23;;;;;;;1.80;61.36;98351.25;1782148;79;21361;-38
2021/03/22 03:02:47;;;;;;;22.07;15.08;;;;;;;1.88;61.23;98346.42;1784404;79;21142;-38
2021/03/22 03:05:21;;;;;;;21.20;14.90;;;;;;;1.95;60.97;98348.00;1786036;79;21557;-38
2021/03/22 03:07:48;;;;;;;21.77;15.40;;;;;;;1.99;60.99;98351.57;1785157;79;21572;-38
2021/03/22 03:10:18;;;;;;;22.30;15.72;;;;;;;2.01;60.87;98349.37;1787636;79;21147;-38
2021/03/22 03:12:46;;;;;;;16.87;10.97;;;;;;;2.05;60.74;98351.61;1797968;79;21426;-38
2021/03/22 03:15:15;;;;;;;21.70;14.93;;;;;;;2.02;60.85;98349.59;1805062;79;21054;-38
2021/03/22 03:17:45;;;;;;;22.98;15.38;;;;;;;2.00;61.02;98350.47;1789330;78;21036;-38
2021/03/22 03:20:18;;;;;;;22.20;15.18;;;;;;;2.03;60.97;98351.72;1803730;78;21170;-38
2021/03/22 03:22:46;;;;;;;20.10;14.38;;;;;;;2.09;60.82;98352.52;1816693;79;21023;-38
2021/03/22 03:25:15;;;;;;;20.37;14.85;;;;;;;2.15;60.68;98347.75;1796149;79;21190;-38
2021/03/22 03:27:42;;;;;;;19.67;15.10;;;;;;;2.16;60.42;98346.09;1778944;79;21138;-38
2021/03/22 03:30:15;;;;;;;24.30;15.60;;;;;;;2.18;60.40;98345.19;1803063;79;21557;-38
2021/03/22 03:32:43;;;;;;;22.80;15.65;;;;;;;2.23;60.37;98348.21;1792128;79;21093;-38
2021/03/22 03:35:13;;;;;;;22.22;15.68;;;;;;;2.28;60.26;98344.55;1796766;79;21162;-38
2021/03/22 03:37:41;;;;;;;22.32;15.78;;;;;;;2.28;60.33;98339.20;1798129;79;21362;-40
2021/03/22 03:40:13;;;;;;;23.38;15.75;;;;;;;2.32;60.39;98342.80;1792196;79;21850;-39
2021/03/22 03:42:41;;;;;;;23.02;16.23;;;;;;;2.38;60.24;98332.11;1791352;79;21616;-39
2021/03/22 03:45:12;;;;;;;21.82;15.03;;;;;;;2.40;60.27;98325.88;1803699;79;21138;-39
2021/03/22 03:47:41;;;;;;;22.50;15.18;;;;;;;2.45;60.22;98328.34;1815812;79;21158;-38
2021/03/22 03:50:15;;;;;;;20.95;14.85;;;;;;;2.47;60.14;98323.46;1809841;79;21369;-39
2021/03/22 03:52:43;;;;;;;24.37;16.00;;;;;;;2.46;60.15;98324.56;1792340;79;21141;-39
2021/03/22 03:55:14;;;;;;;22.77;15.43;;;;;;;2.46;60.15;98325.35;1811896;79;21581;-39
2021/03/22 03:57:47;;;;;;;21.55;15.03;;;;;;;2.47;60.17;98327.47;1798268;79;28246;-39
2021/03/22 04:00:32;;;;;;;21.52;15.15;;;;;;;2.45;60.17;98328.34;1794701;78;21616;-39
2021/03/22 04:03:37;;;;;;;23.60;16.70;;;;;;;2.44;60.26;98330.80;1787726;79;21605;-40
2021/03/22 04:06:18;;;;;;;22.40;15.98;;;;;;;2.41;60.31;98332.25;1783981;80;21696;-39
2021/03/22 04:08:52;;;;;;;25.60;16.32;;;;;;;2.38;60.43;98331.55;1796544;79;21210;-39
2021/03/22 04:11:33;;;;;;;21.93;16.00;;;;;;;2.35;60.71;98328.77;1809388;79;21146;-39
2021/03/22 04:14:01;;;;;;;22.50;15.90;;;;;;;2.28;61.12;98330.63;1813309;78;21629;-39
2021/03/22 04:16:30;;;;;;;25.62;16.37;;;;;;;2.22;61.37;98325.84;1816224;79;22302;-39
2021/03/22 04:18:58;;;;;;;23.80;16.77;;;;;;;2.19;61.63;98326.70;1807064;77;21581;-39
2021/03/22 04:21:29;;;;;;;22.05;15.38;;;;;;;2.22;61.84;98323.95;1796112;78;21154;-39
2021/03/22 04:23:58;;;;;;;19.80;15.45;;;;;;;2.21;62.07;98322.38;1783809;80;21111;-40
2021/03/22 04:26:26;;;;;;;21.70;15.65;;;;;;;2.17;62.32;98316.91;1786807;79;21153;-39
2021/03/22 04:28:55;;;;;;;26.15;17.62;;;;;;;2.15;62.33;98318.34;1753015;80;21184;-39
2021/03/22 04:31:25;;;;;;;21.10;15.50;;;;;;;2.18;62.37;98322.46;1734914;81;21126;-39
2021/03/22 04:33:53;;;;;;;22.52;15.20;;;;;;;2.21;62.36;98318.37;1731351;81;21138;-39
2021/03/22 04:36:26;;;;;;;25.48;16.80;;;;;;;2.22;62.16;98316.48;1734121;80;21185;-39
2021/03/22 04:38:54;;;;;;;25.35;16.30;;;;;;;2.25;62.04;98321.16;1750646;81;21150;-39
2021/03/22 04:41:23;;;;;;;21.68;15.70;;;;;;;2.23;62.00;98324.15;1750170;81;21287;-39
2021/03/22 04:43:51;;;;;;;22.80;15.65;;;;;;;2.16;62.23;98323.37;1813804;79;21138;-39
2021/03/22 04:46:19;;;;;;;22.25;16.00;;;;;;;2.22;62.14;98319.15;1790353;79;21130;-39
2021/03/22 04:48:49;;;;;;;;;;;;;;;2.26;62.06;98326.19;1784359;80;21169;-39
2021/03/22 04:51:17;;;;;;;22.82;15.88;;;;;;;2.29;61.93;98331.41;1796453;79;20260;-39
2021/03/22 04:53:45;;;;;;;22.45;14.95;;;;;;;2.18;62.02;98323.80;1794132;78;21356;-39
2021/03/22 04:56:14;;;;;;;21.48;15.85;;;;;;;2.19;61.93;98325.38;1789977;79;21592;-39
2021/03/22 04:58:43;;;;;;;22.17;15.15;;;;;;;2.18;62.04;98321.12;1784254;79;21118;-39
2021/03/22 05:01:11;;;;;;;22.75;16.93;;;;;;;2.18;62.16;98327.03;1798687;79;21122;-39
2021/03/22 05:03:39;;;;;;;22.60;15.13;;;;;;;2.18;62.00;98325.14;1815884;79;21552;-39
2021/03/22 05:06:08;;;;;;;26.82;16.65;;;;;;;2.17;61.81;98327.61;1798094;77;21353;-39
2021/03/22 05:08:37;;;;;;;15.85;11.25;;;;;;;2.18;61.65;98338.51;1801395;79;21007;-39
2021/03/22 05:11:06;;;;;;;21.35;14.85;;;;;;;2.18;61.64;98323.02;1804003;79;21162;-39
2021/03/22 05:13:34;;;;;;;20.02;15.03;;;;;;;2.16;61.62;98331.39;1784826;79;21040;-39
2021/03/22 05:16:03;;;;;;;22.25;15.93;;;;;;;2.17;61.58;98334.84;1795600;79;21162;-39
2021/03/22 05:18:31;;;;;;;19.60;13.58;;;;;;;2.18;61.37;98334.50;1784062;79;21431;-39
2021/03/22 05:21:03;;;;;;;23.18;15.15;;;;;;;2.18;61.14;98328.36;1784302;79;21703;-39
2021/03/22 05:23:32;;;;;;;24.47;15.78;;;;;;;2.17;61.28;98336.97;1783986;80;21134;-39
2021/03/22 05:26:00;;;;;;;21.82;14.80;;;;;;;2.19;61.39;98336.62;1786686;79;21133;-39
2021/03/22 05:28:31;;;;;;;21.40;13.98;;;;;;;2.17;61.35;98332.17;1813726;79;21131;-39
2021/03/22 05:30:59;;;;;;;21.37;14.28;;;;;;;2.16;61.46;98347.43;1785253;79;21546;-39
2021/03/22 05:33:27;;;;;;;23.65;15.53;;;;;;;2.17;61.46;98357.02;1798633;79;21593;-39
2021/03/22 05:35:58;;;;;;;23.42;15.23;;;;;;;2.17;61.74;98352.22;1784041;79;21409;-39
2021/03/22 05:38:25;;;;;;;;;;;;;;;2.19;61.49;98355.34;1799283;79;21137;-40
2021/03/22 05:40:58;;;;;;;21.35;14.40;;;;;;;2.21;61.23;98350.45;1793911;78;20258;-39
2021/03/22 05:43:48;;;;;;;22.42;14.05;;;;;;;2.12;61.62;98354.55;1783972;79;21424;-39
2021/03/22 05:46:45;;;;;;;19.27;14.03;;;;;;;2.15;61.77;98356.55;1783688;80;21181;-39
2021/03/22 05:49:22;;;;;;;19.90;13.75;;;;;;;2.14;62.20;98352.31;1792933;79;21621;-39
2021/03/22 05:52:22;;;;;;;22.25;13.55;;;;;;;2.13;62.74;98352.66;1783961;79;21017;-39
2021/03/22 05:55:32;;;;;;;21.27;13.65;;;;;;;2.11;63.11;98349.52;1787658;79;21149;-39
2021/03/22 05:58:32;;;;;;;19.30;13.13;;;;;;;2.07;63.61;98346.73;1794625;79;21193;-39
2021/03/22 06:01:25;;;;;;;22.48;14.15;;;;;;;2.09;63.85;98335.69;1726267;83;21185;-39
2021/03/22 06:04:02;;;;;;;20.97;13.72;;;;;;;2.15;64.33;98345.08;1785741;79;21122;-39
2021/03/22 06:06:40;;;;;;;21.02;13.88;;;;;;;2.12;64.62;98348.41;1796520;77;21118;-39
2021/03/22 06:09:41;;;;;;;23.35;14.50;;;;;;;2.11;64.71;98347.63;1796997;79;21162;-39
2021/03/22 06:12:17;;;;;;;23.42;13.93;;;;;;;2.13;64.92;98345.39;1758395;79;21363;-39
2021/03/22 06:14:54;;;;;;;20.12;13.78;;;;;;;2.10;65.28;98350.07;1743800;80;21519;-39
2021/03/22 06:17:30;;;;;;;19.25;13.75;;;;;;;2.06;65.89;98351.84;1741347;80;21098;-39
2021/03/22 06:20:01;;;;;;;20.35;13.98;;;;;;;2.06;66.40;98361.20;1745872;81;21210;-39
2021/03/22 06:22:30;;;;;;;20.52;14.60;;;;;;;2.01;66.96;98350.70;1810586;79;22055;-39
2021/03/22 06:25:18;;;;;;;21.57;14.47;;;;;;;1.99;67.26;98352.13;1786300;79;21414;-39
2021/03/22 06:27:50;;;;;;;21.40;14.95;;;;;;;1.95;67.60;98356.02;1815840;78;21004;-39
2021/03/22 06:30:21;;;;;;;20.77;14.47;;;;;;;1.93;68.30;98357.46;1792369;79;21640;-39
2021/03/22 06:32:52;;;;;;;23.30;15.30;;;;;;;1.96;68.33;98350.91;1810438;79;21468;-39
2021/03/22 06:35:32;;;;;;;23.22;15.18;;;;;;;1.96;68.61;98363.48;1808416;79;21166;-39
2021/03/22 06:38:00;;;;;;;20.43;13.93;;;;;;;1.98;68.77;98364.73;1775103;79;21333;-39
2021/03/22 06:40:32;;;;;;;21.15;15.23;;;;;;;1.98;69.02;98364.73;1749750;81;21039;-40
2021/03/22 06:43:13;;;;;;;21.75;14.53;;;;;;;2.03;69.14;98361.83;1777649;79;21113;-39
2021/03/22 06:45:44;;;;;;;22.90;15.43;;;;;;;2.14;69.25;98367.02;1803556;78;21138;-39
2021/03/22 06:48:22;;;;;;;22.35;15.45;;;;;;;2.22;69.14;98368.62;1797231;78;21105;-39
2021/03/22 06:51:04;;;;;;;21.25;14.53;;;;;;;2.24;69.00;98373.06;1816385;78;22123;-39
2021/03/22 06:53:47;;;;;;;17.45;13.08;;;;;;;2.24;69.21;98374.41;1808462;78;21149;-39
2021/03/22 06:56:30;;;;;;;18.23;13.70;;;;;;;2.35;69.01;98378.24;1786264;79;21137;-39
2021/03/22 06:59:15;;;;;;;20.37;14.55;;;;;;;2.48;69.00;98384.64;1734710;81;21592;-39
2021/03/22 07:01:44;;;;;;;19.02;13.22;;;;;;;2.50;69.12;98377.63;1795946;78;21695;-39
2021/03/22 07:04:31;;;;;;;22.13;14.45;;;;;;;2.50;69.37;98376.30;1781701;79;21372;-39
2021/03/22 07:07:22;;;;;;;19.95;14.18;;;;;;;2.51;68.67;98383.21;1801327;78;21150;-39
2021/03/22 07:09:57;;;;;;;19.62;14.60;;;;;;;2.52;69.03;98376.73;1790490;78;21115;-39
2021/03/22 07:12:34;;;;;;;19.45;13.60;;;;;;;2.57;69.18;98379.20;1796255;77;21726;-39
2021/03/22 07:15:30;;;;;;;19.77;14.07;;;;;;;2.61;69.27;98386.81;1806010;77;21572;-39
2021/03/22 07:18:15;;;;;;;23.15;15.18;;;;;;;2.61;69.22;98379.54;1794572;78;21409;-39
2021/03/22 07:20:59;;;;;;;19.70;15.03;;;;;;;2.59;69.23;98386.34;1785839;78;21142;-39
2021/03/22 07:23:32;;;;;;;21.65;14.38;;;;;;;2.60;69.25;98386.58;1755978;81;21731;-39
2021/03/22 07:26:32;;;;;;;20.23;14.47;;;;;;;2.61;69.12;98384.14;1783164;80;21641;-39
2021/03/22 07:29:33;;;;;;;22.25;15.20;;;;;;;2.60;69.23;98390.04;1760909;80;21178;-39
2021/03/22 07:32:23;;;;;;;21.10;14.87;;;;;;;2.56;69.55;98388.36;1785738;80;21422;-39
2021/03/22 07:35:12;;;;;;;21.42;14.87;;;;;;;2.57;69.64;98385.88;1774264;78;21169;-39
2021/03/22 07:38:07;;;;;;;20.30;14.73;;;;;;;2.65;69.60;98390.39;1786070;78;21636;-39
2021/03/22 07:40:53;;;;;;;20.10;14.45;;;;;;;2.70;69.21;98386.72;1786392;80;21121;-39
2021/03/22 07:44:06;;;;;;;19.32;13.90;;;;;;;2.68;69.07;98380.91;1766181;81;21579;-39
2021/03/22 07:47:19;;;;;;;20.92;16.07;;;;;;;2.66;69.13;98387.16;1756535;81;21370;-39
2021/03/22 07:50:19;;;;;;;21.07;14.53;;;;;;;2.63;69.66;98384.57;1785699;80;21047;-39
2021/03/22 07:53:05;;;;;;;20.45;14.68;;;;;;;2.80;69.87;98388.42;1785765;80;22137;-39
2021/03/22 07:55:47;;;;;;;19.25;14.25;;;;;;;2.99;68.94;98390.02;1781391;80;21979;-39
2021/03/22 07:58:39;;;;;;;21.52;15.43;;;;;;;3.13;68.69;98388.91;1786428;78;21146;-39
2021/03/22 08:01:54;;;;;;;19.45;15.15;;;;;;;3.24;68.31;98392.72;1785366;80;21657;-39
2021/03/22 08:04:55;;;;;;;22.13;16.02;;;;;;;3.25;68.35;98396.38;1787563;80;21548;-39
2021/03/22 08:07:51;;;;;;;21.40;16.42;;;;;;;3.23;68.17;98394.61;1787477;80;21157;-39
2021/03/22 08:11:03;;;;;;;18.77;14.85;;;;;;;3.25;68.51;98394.25;1831727;78;22698;-38
2021/03/22 08:14:07;;;;;;;19.30;15.20;;;;;;;3.24;68.20;98396.73;1745361;81;20968;-38
2021/03/22 08:17:01;;;;;;;20.57;15.50;;;;;;;3.26;68.41;98391.80;1738824;81;21379;-38
2021/03/22 08:19:38;;;;;;;21.97;16.23;;;;;;;3.26;68.56;98397.16;1760688;80;20979;-38
2021/03/22 08:22:39;;;;;;;21.05;15.48;;;;;;;3.30;68.78;98388.67;1752423;80;21713;-38
2021/03/22 08:25:30;;;;;;;19.50;14.38;;;;;;;3.37;68.64;98391.59;1750900;79;21315;-39
2021/03/22 08:28:16;;;;;;;17.15;13.95;;;;;;;3.40;68.07;98390.91;1767142;79;20999;-38
2021/03/22 08:31:10;;;;;;;20.72;14.50;;;;;;;3.45;67.73;98392.02;1770160;78;21230;-38
2021/03/22 08:33:44;;;;;;;20.17;15.50;;;;;;;3.54;66.90;98401.28;1742906;82;20999;-38
2021/03/22 08:36:33;;;;;;;21.45;14.87;;;;;;;3.57;67.37;98399.29;1762761;78;21531;-38
2021/03/22 08:39:22;;;;;;;21.42;16.07;;;;;;;3.59;67.33;98400.50;1738755;82;21154;-38
2021/03/22 08:42:01;;;;;;;18.75;14.38;;;;;;;3.67;68.08;98397.50;1745523;82;21199;-38
2021/03/22 08:44:49;;;;;;;20.80;15.78;;;;;;;3.75;66.37;98396.58;1767702;79;21428;-38
2021/03/22 08:47:35;;;;;;;21.48;16.57;;;;;;;3.75;66.34;98394.69;1781971;78;21126;-38
2021/03/22 08:50:11;;;;;;;19.12;14.13;;;;;;;3.73;66.62;98401.48;1737403;81;21033;-38
2021/03/22 08:52:58;;;;;;;20.85;14.60;;;;;;;3.74;66.50;98401.16;1742166;80;21153;-38
2021/03/22 08:55:31;;;;;;;19.10;14.13;;;;;;;3.72;66.50;98397.27;1730670;81;21839;-38
2021/03/22 08:58:06;;;;;;;19.12;14.50;;;;;;;3.67;66.84;98395.59;1759486;78;22262;-39
2021/03/22 09:00:44;;;;;;;20.85;15.10;;;;;;;3.64;66.59;98389.55;1749339;80;21141;-38
2021/03/22 09:03:32;;;;;;;18.40;14.07;;;;;;;3.57;66.48;98396.61;1744468;81;21174;-38
2021/03/22 09:06:27;;;;;;;20.32;15.08;;;;;;;3.47;66.75;98397.84;1758897;80;21170;-38
2021/03/22 09:09:01;;;;;;;19.23;14.78;;;;;;;3.45;67.21;98402.19;1761392;80;21660;-38
2021/03/22 09:11:34;;;;;;;19.95;13.88;;;;;;;3.50;67.37;98408.66;1802183;79;21272;-38
2021/03/22 09:14:13;;;;;;;18.37;13.78;;;;;;;3.64;67.62;98404.30;1788154;79;21158;-39
2021/03/22 09:16:48;;;;;;;19.27;13.93;;;;;;;3.76;67.68;98401.61;1794227;79;21039;-39
2021/03/22 09:19:22;;;;;;;19.77;15.35;;;;;;;3.81;66.33;98406.74;1809781;79;21593;-39
2021/03/22 09:22:02;;;;;;;18.65;15.15;;;;;;;3.78;67.16;98396.67;1793669;79;21137;-39
2021/03/22 09:24:45;;;;;;;20.40;15.37;;;;;;;3.80;67.32;98403.84;1781967;77;21211;-39
2021/03/22 09:27:19;;;;;;;18.48;14.50;;;;;;;3.86;67.75;98410.53;1789941;79;21170;-37
2021/03/22 09:30:04;;;;;;;17.98;13.78;;;;;;;4.04;67.16;98395.52;1786317;79;20956;-38
2021/03/22 09:32:41;;;;;;;18.35;14.38;;;;;;;4.19;66.81;98392.91;1799425;79;21272;-38
2021/03/22 09:35:21;;;;;;;21.10;15.72;;;;;;;4.25;65.49;98394.79;1793182;79;21592;-39
2021/03/22 09:38:03;;;;;;;19.42;14.93;;;;;;;4.21;65.74;98397.35;1795772;77;21358;-39
2021/03/22 09:40:36;;;;;;;18.55;14.30;;;;;;;4.28;65.43;98398.13;1775239;79;21201;-39
2021/03/22 09:45:56;;;;;;;18.15;13.50;;;;;;;4.31;65.17;98399.55;1827257;77;22809;-39
2021/03/22 09:48:37;;;;;;;15.75;13.20;;;;;;;4.25;64.25;98406.30;1801923;79;21600;-38
2021/03/22 09:51:11;;;;;;;17.85;13.20;;;;;;;4.15;64.54;98410.02;1800347;79;21378;-38
2021/03/22 09:53:58;;;;;;;14.93;12.47;;;;;;;4.11;65.04;98409.14;1771573;80;21012;-38
2021/03/22 09:56:38;;;;;;;16.17;12.73;;;;;;;4.19;64.81;98414.36;1765182;80;21592;-38
2021/03/22 09:59:28;;;;;;;16.15;13.28;;;;;;;4.24;64.37;98407.98;1728951;80;21127;-38
2021/03/22 10:01:58;;;;;;;14.28;12.20;;;;;;;4.21;64.98;98418.05;1727054;78;21015;-38
2021/03/22 10:04:31;;;;;;;17.00;13.83;;;;;;;4.28;64.73;98415.56;1765617;80;21206;-38
2021/03/22 10:07:30;;;;;;;15.83;12.65;;;;;;;4.34;64.34;98417.67;1767086;80;20984;-38
2021/03/22 10:10:01;;;;;;;16.60;13.40;;;;;;;4.38;63.89;98423.13;1741323;81;21553;-38
2021/03/22 10:12:42;;;;;;;16.97;14.30;;;;;;;4.34;64.32;98430.30;1736744;82;21147;-38
2021/03/22 10:15:19;;;;;;;18.17;14.93;;;;;;;4.27;65.10;98434.89;1731678;82;21205;-38
2021/03/22 10:18:28;;;;;;;17.32;13.53;;;;;;;4.22;65.58;98436.47;1749708;80;21341;-38
2021/03/22 10:21:21;;;;;;;14.13;10.98;;;;;;;4.24;65.41;98434.80;1754870;80;21142;-38
2021/03/22 10:24:26;;;;;;;18.77;13.32;;;;;;;4.16;65.16;98435.73;1737493;81;21218;-38
2021/03/22 10:26:57;;;;;;;17.55;13.98;;;;;;;4.05;65.40;98446.14;1739731;81;21168;-38
2021/03/22 10:29:31;;;;;;;17.73;14.10;;;;;;;3.90;65.17;98443.59;1738384;81;21158;-38
2021/03/22 10:32:24;;;;;;;17.12;13.83;;;;;;;3.82;65.30;98441.83;1737890;80;21494;-38
2021/03/22 10:34:55;;;;;;;16.80;12.68;;;;;;;3.80;65.70;98441.37;1729446;81;21381;-38
2021/03/22 10:37:33;;;;;;;15.35;12.65;;;;;;;3.83;65.04;98442.02;1723554;81;21625;-38
2021/03/22 10:40:21;;;;;;;16.87;12.82;;;;;;;3.77;64.32;98444.73;1743261;80;21153;-38
2021/03/22 10:42:51;;;;;;;13.32;11.15;;;;;;;3.78;65.08;98438.23;1744025;80;21210;-38
2021/03/22 10:45:29;;;;;;;16.20;11.85;;;;;;;3.90;65.12;98435.55;1748708;81;21282;-38
2021/03/22 10:47:58;;;;;;;15.78;12.98;;;;;;;4.03;64.71;98433.61;1727641;82;21151;-38
2021/03/22 10:50:32;;;;;;;16.95;12.80;;;;;;;4.10;64.83;98434.39;1720284;81;21558;-38
2021/03/22 10:53:17;;;;;;;15.72;12.28;;;;;;;4.17;64.68;98423.30;1722746;82;21222;-38
2021/03/22 10:55:47;;;;;;;17.60;12.95;;;;;;;4.18;61.93;98418.72;1766998;79;21151;-38
2021/03/22 10:58:34;;;;;;;18.17;13.03;;;;;;;4.11;61.67;98427.92;1777546;79;22160;-38
2021/03/22 11:01:05;;;;;;;19.23;15.08;;;;;;;4.10;63.00;98433.84;1781628;79;21154;-38
2021/03/22 11:03:34;;;;;;;17.98;13.58;;;;;;;4.14;63.24;98429.91;1778788;79;21164;-39
2021/03/22 11:06:14;;;;;;;12.73;9.80;;;;;;;4.16;62.72;98428.47;1779907;79;21618;-38
2021/03/22 11:08:47;;;;;;;18.12;13.20;;;;;;;4.19;62.66;98425.66;1788933;79;21123;-39
2021/03/22 11:11:17;;;;;;;17.52;14.33;;;;;;;4.20;62.28;98425.32;1729483;82;21387;-39
2021/03/22 11:13:49;;;;;;;16.82;13.75;;;;;;;4.22;61.90;98427.64;1753377;80;21523;-39
2021/03/22 11:16:26;;;;;;;17.82;13.88;;;;;;;4.17;61.98;98435.37;1747562;80;21138;-38
2021/03/22 11:18:55;;;;;;;18.27;15.13;;;;;;;4.18;62.59;98424.08;1751650;81;21119;-39
2021/03/22 11:21:25;;;;;;;18.17;14.30;;;;;;;4.27;63.18;98422.83;1763108;80;21171;-39
2021/03/22 11:23:55;;;;;;;17.87;12.95;;;;;;;4.40;63.56;98409.38;1748658;80;23747;-39
2021/03/22 11:26:27;;;;;;;16.55;13.72;;;;;;;4.57;62.51;98416.56;1742823;80;21178;-39
2021/03/22 11:29:24;;;;;;;16.48;13.18;;;;;;;4.66;61.89;98413.16;1767531;81;21449;-39
2021/03/22 11:32:02;;;;;;;17.48;13.58;;;;;;;4.72;61.18;98416.39;1751864;81;21127;-40
2021/03/22 11:34:34;;;;;;;17.45;14.20;;;;;;;4.75;61.11;98421.84;1738034;82;21612;-40
2021/03/22 11:37:20;;;;;;;16.65;14.18;;;;;;;4.77;60.69;98421.51;1758594;80;21389;-40
2021/03/22 11:40:09;;;;;;;19.50;14.43;;;;;;;4.77;61.22;98424.19;1797504;79;21162;-40
2021/03/22 11:43:02;;;;;;;18.12;13.78;;;;;;;4.76;61.06;98432.81;1796446;79;21552;-40
2021/03/22 11:45:44;;;;;;;17.25;13.80;;;;;;;4.67;60.26;98430.84;1789381;78;21625;-40
2021/03/22 11:48:29;;;;;;;18.73;14.47;;;;;;;4.54;60.59;98434.70;1784671;79;21170;-40
2021/03/22 11:51:11;;;;;;;17.62;13.62;;;;;;;4.55;61.46;98436.25;1798670;79;22230;-40
2021/03/22 11:54:01;;;;;;;18.37;14.43;;;;;;;4.57;60.25;98439.94;1772560;81;21149;-40
2021/03/22 11:56:30;;;;;;;17.87;13.90;;;;;;;4.54;61.03;98432.58;1790951;79;21036;-41
2021/03/22 11:59:19;;;;;;;;;;;;;;;4.53;60.51;98428.33;1797349;79;21159;-40
2021/03/22 12:01:43;;;;;;;19.00;14.50;;;;;;;4.47;60.52;98429.69;1777274;78;20310;-40
2021/03/22 12:04:16;;;;;;;17.48;14.40;;;;;;;4.34;60.50;98431.64;1751353;79;22327;-40
2021/03/22 12:06:57;;;;;;;17.27;14.07;;;;;;;4.30;60.49;98430.21;1773873;79;21523;-40
2021/03/22 12:09:27;;;;;;;16.97;13.90;;;;;;;4.22;60.83;98433.01;1787663;78;21609;-40
2021/03/22 12:11:55;;;;;;;15.20;12.45;;;;;;;4.15;60.83;98432.82;1789860;79;21150;-40
2021/03/22 12:17:21;;;;;;;15.68;12.68;;;;;;;4.07;60.77;98437.73;1825807;77;22596;-39
2021/03/22 12:19:49;;;;;;;17.02;13.38;;;;;;;3.92;61.39;98437.31;1796265;79;20968;-38
2021/03/22 12:22:18;;;;;;;17.70;15.00;;;;;;;3.97;61.42;98446.27;1773445;79;21389;-38